Davie, FL

2:54 AM EDT on May 06, 2015 (GMT -0400)
Davie - Near Tree Tops Park | | Change Station
CLOSE
Current Station
Personal Weather Station
Location: Davie, FL
Elevation: 8 ft
Nearby Weather Stations

Elev 8 ft 26.08 °N, 80.28 °W | Updated 12 seconds ago

Overcast
Overcast
68.9 °F
Feels Like 68.9 °F
N
0.7
Wind Variable Wind from North
Gusts 1.2 mph

Today
High -- | Low -- °F
--% Chance of Precip.
Yesterday
High -- | Low -- °F
Precip. -- in
6:40 AM 7:55 PM
Waning Gibbous, 95% visible
Pressure 30.01 in
Visibility 5.0 miles
Clouds Mostly Cloudy 500 ft
Overcast 2400 ft
Dew Point 68 °F
Humidity 96%
Rainfall 0.09 in
Snow Depth Not available.
UV 0 out of 12
Pollen .50 out of 12
Air Quality Not available.
Flu Activity Local Activity
SPECI KFLL 060619Z 32005KT 5SM RA BR BKN005 OVC024 22/21 A3001 RMK AO2 P0006 T02170206

More Conditions Fewer Conditions

Pressure 30.01 in
Visibility 5.0 miles
Clouds Mostly Cloudy 500 ft
Overcast 2400 ft
Dew Point 68 °F
Humidity 96%
Rainfall 0.09 in
Snow Depth Not available.
UV 0 out of 12
Pollen .50 out of 12
Air Quality Not available.
Flu Activity Local Activity
SPECI KFLL 060619Z 32005KT 5SM RA BR BKN005 OVC024 22/21 A3001 RMK AO2 P0006 T02170206

More Conditions Fewer Conditions

Nowcast | as of 2:21 am EDT on May 6, 2015

Through 4 am isolated to widely scattered showers embedded within a areas of mostly light rain will be impacting mainly portions of coastal and Metro Broward and Palm Beach counties and extreme northeast Miami Dade. Heaviest activity through the period will be moving across southeast portions of Broward County including areas from Hollywood Beach to Fort Lauderdale and adjacent areas as it moves slowly north and into the adjacent waters. Main concerns with the activity will be periods of heavy rain resulting in ponding of water on roadways and gusty winds in excess of 25 mph.

×

10-Day Weather Forecast

Almanac

Astronomy

May. 06, 2015 Rise Set
Actual Time
Civil Twilight
Nautical Twilight
Astronomical Twilight
Moon
Length of Visible Light
Length of Day
Tomorrow will be .
, % of the Moon is Illuminated

Today's Extremes

State Highs State Lows

Community

WunderPhotos

Upload Photos

1,818,850 photos uploaded!

WunderBlogs® & News

Nearby

Air Quality

  Air Quality AQ Index Pollutant
Not available.

Snow Depth

Station Depth Elevation

Earthquake Activity

City Distance Mag. Time & Date
Minimum magnitude displayed is 2.5.

Coastal Water Temperatures

Place Temperature

Stations

Nearby Weather Stations

Station Location Temp. Windchill Dew Point Humidity Wind Precip. Elev Updated Type